Atlantic Island — C4VM2 — position and weather

sailwx.info

Track history (hours):
 
Tides and Currents Weather Stations Pressure Air Temp Water Temp Dewpoint Dewpoint Depression Visibility Wind Speed Wind Dir Waves Ship Positions

Atlantic Island

Last reported at 2016-Jun-25 09:27 UTC. Time now 2016-Jun-28 09:48 UTC.
Position N 36°46' W 006°27'.

Length 95 m; draft 3.8 m.

Type: Cargo ship. MMSI: 210754000.

Date/timePositionNaut miles runAvg speedWind from/ knotsBaromVisibWave heightAir tempDewpointWater temp
2016-Jun-25 09:27N 36°46' W 006°27'0 0.0
2016-Jun-23 19:16N 36°46' W 006°27'45 4.6
2016-Jun-23 09:33N 36°48' W 007°23'1410.8
2016-Jun-23 08:15N 36°49' W 007°41'710.5
2016-Jun-23 07:33N 36°49' W 007°50'2010.0
2016-Jun-23 05:34N 36°48' W 008°15'56 7.5
2016-Jun-22 22:06N 37°24' W 009°10'611.0
2016-Jun-22 21:33N 37°30' W 009°08'1111.1
2016-Jun-22 20:33N 37°41' W 009°07'1111.2
2016-Jun-22 19:33N 37°52' W 009°05'1110.8
2016-Jun-22 18:33N 38°03' W 009°03'1110.7
2016-Jun-22 17:34N 38°13' W 009°02'1110.9
2016-Jun-22 16:33N 38°24' W 008°60'9 8.9
2016-Jun-22 15:34N 38°31' W 008°52'1 1.4
2016-Jun-22 14:34N 38°30' W 008°51'0 0.0
2016-Jun-22 13:32N 38°30' W 008°51'0 0.0
2016-Jun-22 12:32N 38°30' W 008°51'0 0.0
2016-Jun-22 11:32N 38°30' W 008°51'0 0.0
2016-Jun-22 10:25N 38°30' W 008°51'0 0.0
2016-Jun-22 09:22N 38°30' W 008°51'0 0.0
2016-Jun-22 08:31N 38°30' W 008°51'0 0.0
2016-Jun-22 07:28N 38°30' W 008°51'0 0.0
2016-Jun-22 06:31N 38°30' W 008°51'0 0.0
2016-Jun-22 05:31N 38°30' W 008°51'0 0.0
2016-Jun-22 04:31N 38°30' W 008°51'0 0.0
2016-Jun-22 03:25N 38°30' W 008°51'0 0.0
2016-Jun-22 02:31N 38°30' W 008°51'0 0.0
2016-Jun-22 01:31N 38°30' W 008°51'0 0.0
2016-Jun-22 00:31N 38°30' W 008°51'0 0.0
2016-Jun-21 23:31N 38°30' W 008°51'0 0.0
2016-Jun-21 22:31N 38°30' W 008°51'0 0.0
2016-Jun-21 21:25N 38°30' W 008°51'0 0.0
2016-Jun-21 20:31N 38°30' W 008°51'0 0.0
2016-Jun-21 19:31N 38°30' W 008°51'0 0.0
2016-Jun-21 18:31N 38°30' W 008°51'0 0.0
2016-Jun-21 17:28N 38°30' W 008°51'0 0.0
2016-Jun-21 16:31N 38°30' W 008°51'0 0.0
2016-Jun-21 15:28N 38°30' W 008°51'0 0.0
2016-Jun-21 14:31N 38°30' W 008°51'0 0.0
2016-Jun-21 13:31N 38°30' W 008°51'0 0.0
2016-Jun-21 12:28N 38°30' W 008°51'1 1.4
2016-Jun-21 11:33N 38°31' W 008°52'9 8.5
2016-Jun-21 10:33N 38°24' W 008°59'8 7.8
2016-Jun-21 09:33N 38°17' W 009°00'0 0.4
2016-Jun-21 08:33N 38°17' W 009°00'0 0.3
2016-Jun-21 07:33N 38°17' W 009°01'0 0.2
2016-Jun-21 05:33N 38°17' W 009°01'7 7.0
2016-Jun-21 04:33N 38°10' W 009°03'1010.2
2016-Jun-21 03:33N 38°00' W 009°06'1010.0
2016-Jun-21 02:33N 37°50' W 009°08'10 9.9
2016-Jun-21 01:32N 37°41' W 009°11'10 9.7
2016-Jun-21 00:33N 37°31' W 009°13'10 9.5
2016-Jun-20 23:32N 37°22' W 009°16'9 9.6
2016-Jun-20 22:33N 37°12' W 009°18'9 9.4
2016-Jun-20 21:33N 37°03' W 009°20'9 9.1
2016-Jun-20 20:33N 36°54' W 009°19'9 9.3
2016-Jun-20 19:33N 36°47' W 009°12'9 9.1
2016-Jun-20 18:33N 36°43' W 009°02'9 9.4
2016-Jun-20 17:33N 36°40' W 008°51'9 9.1
2016-Jun-20 16:33N 36°37' W 008°40'10 9.4
2016-Jun-20 15:32N 36°34' W 008°29'9 9.6
2016-Jun-20 14:34N 36°31' W 008°17'10 9.7
2016-Jun-20 13:33N 36°28' W 008°06'10 9.6
2016-Jun-20 12:33N 36°25' W 007°55'9 9.4
2016-Jun-20 11:33N 36°22' W 007°44'10 9.6
2016-Jun-20 10:33N 36°19' W 007°32'12 9.5
2016-Jun-20 09:20N 36°15' W 007°18'18 9.8
2016-Jun-20 07:29N 36°10' W 006°57'67 9.6
2016-Jun-20 00:33N 35°58' W 005°36'9 8.9
2016-Jun-19 23:33N 36°00' W 005°25'8 7.6
2016-Jun-19 22:33N 36°01' W 005°16'135 8.9
2016-Jun-19 07:30N 36°23' W 002°31'87 9.2
2016-Jun-18 22:06N 37°14' W 001°03'15 9.8
2016-Jun-18 20:33N 37°24' W 000°49'12 9.5
2016-Jun-18 19:19N 37°32' W 000°38'7 8.9
2016-Jun-18 18:33N 37°36' W 000°32'9 9.2
2016-Jun-18 17:33N 37°44' W 000°25'9 9.0
2016-Jun-18 16:33N 37°52' W 000°20'9 9.2
2016-Jun-18 15:32N 37°60' W 000°13'129 9.8
2016-Jun-18 02:24N 39°57' E 000°56'910.1
2016-Jun-18 01:33N 40°06' E 000°58'1010.1
2016-Jun-18 00:33N 40°16' E 001°00'2210.1
2016-Jun-17 22:22N 40°37' E 001°06'810.1
2016-Jun-17 21:33N 40°45' E 001°08'14 5.6
2016-Jun-17 19:08N 40°59' E 001°11'0 0.3
2016-Jun-17 18:32N 40°58' E 001°11'8 7.6
2016-Jun-17 17:33N 41°06' E 001°14'0 0.0
2016-Jun-16 22:28N 41°06' E 001°14'22 1.2
2016-Jun-16 04:32N 40°52' E 001°36'9 9.0
2016-Jun-16 03:33N 40°47' E 001°46'8 8.4
2016-Jun-16 02:33N 40°42' E 001°55'8 8.3
2016-Jun-16 01:33N 40°38' E 002°04'8 8.5
2016-Jun-16 00:33N 40°33' E 002°14'8 8.3
2016-Jun-15 23:33N 40°29' E 002°23'9 8.7
2016-Jun-15 22:33N 40°24' E 002°32'9 8.6
2016-Jun-15 21:33N 40°19' E 002°42'9 9.2
2016-Jun-15 20:33N 40°14' E 002°52'9 9.2
2016-Jun-15 19:33N 40°10' E 003°02'10 8.9
2016-Jun-15 18:26N 40°04' E 003°13'11 8.8
2016-Jun-15 17:11N 39°58' E 003°25'6 9.6
2016-Jun-15 16:33N 39°55' E 003°31'10 9.6
2016-Jun-15 15:33N 39°49' E 003°42'1110.9
2016-Jun-15 14:32N 39°43' E 003°54'  
Track history (hours):
 
Tides and Currents Weather Stations Pressure Air Temp Water Temp Dewpoint Dewpoint Depression Visibility Wind Speed Wind Dir Waves Ship Positions

Atlantic Island

Last reported at 2016-Jun-25 09:27 UTC. Time now 2016-Jun-28 09:48 UTC.
Position N 36°46' W 006°27'.

Length 95 m; draft 3.8 m.

Type: Cargo ship. MMSI: 210754000.

Date/timePositionNaut miles runAvg speedWind from/ knotsBaromVisibWave heightAir tempDewpointWater temp
2016-Jun-25 09:27N 36°46' W 006°27'0 0.0
2016-Jun-23 19:16N 36°46' W 006°27'45 4.6
2016-Jun-23 09:33N 36°48' W 007°23'1410.8
2016-Jun-23 08:15N 36°49' W 007°41'710.5
2016-Jun-23 07:33N 36°49' W 007°50'2010.0
2016-Jun-23 05:34N 36°48' W 008°15'56 7.5
2016-Jun-22 22:06N 37°24' W 009°10'611.0
2016-Jun-22 21:33N 37°30' W 009°08'1111.1
2016-Jun-22 20:33N 37°41' W 009°07'1111.2
2016-Jun-22 19:33N 37°52' W 009°05'1110.8
2016-Jun-22 18:33N 38°03' W 009°03'1110.7
2016-Jun-22 17:34N 38°13' W 009°02'1110.9
2016-Jun-22 16:33N 38°24' W 008°60'9 8.9
2016-Jun-22 15:34N 38°31' W 008°52'1 1.4
2016-Jun-22 14:34N 38°30' W 008°51'0 0.0
2016-Jun-22 13:32N 38°30' W 008°51'0 0.0
2016-Jun-22 12:32N 38°30' W 008°51'0 0.0
2016-Jun-22 11:32N 38°30' W 008°51'0 0.0
2016-Jun-22 10:25N 38°30' W 008°51'0 0.0
2016-Jun-22 09:22N 38°30' W 008°51'0 0.0
2016-Jun-22 08:31N 38°30' W 008°51'0 0.0
2016-Jun-22 07:28N 38°30' W 008°51'0 0.0
2016-Jun-22 06:31N 38°30' W 008°51'0 0.0
2016-Jun-22 05:31N 38°30' W 008°51'0 0.0
2016-Jun-22 04:31N 38°30' W 008°51'0 0.0
2016-Jun-22 03:25N 38°30' W 008°51'0 0.0
2016-Jun-22 02:31N 38°30' W 008°51'0 0.0
2016-Jun-22 01:31N 38°30' W 008°51'0 0.0
2016-Jun-22 00:31N 38°30' W 008°51'0 0.0
2016-Jun-21 23:31N 38°30' W 008°51'0 0.0
2016-Jun-21 22:31N 38°30' W 008°51'0 0.0
2016-Jun-21 21:25N 38°30' W 008°51'0 0.0
2016-Jun-21 20:31N 38°30' W 008°51'0 0.0
2016-Jun-21 19:31N 38°30' W 008°51'0 0.0
2016-Jun-21 18:31N 38°30' W 008°51'0 0.0
2016-Jun-21 17:28N 38°30' W 008°51'0 0.0
2016-Jun-21 16:31N 38°30' W 008°51'0 0.0
2016-Jun-21 15:28N 38°30' W 008°51'0 0.0
2016-Jun-21 14:31N 38°30' W 008°51'0 0.0
2016-Jun-21 13:31N 38°30' W 008°51'0 0.0
2016-Jun-21 12:28N 38°30' W 008°51'1 1.4
2016-Jun-21 11:33N 38°31' W 008°52'9 8.5
2016-Jun-21 10:33N 38°24' W 008°59'8 7.8
2016-Jun-21 09:33N 38°17' W 009°00'0 0.4
2016-Jun-21 08:33N 38°17' W 009°00'0 0.3
2016-Jun-21 07:33N 38°17' W 009°01'0 0.2
2016-Jun-21 05:33N 38°17' W 009°01'7 7.0
2016-Jun-21 04:33N 38°10' W 009°03'1010.2
2016-Jun-21 03:33N 38°00' W 009°06'1010.0
2016-Jun-21 02:33N 37°50' W 009°08'10 9.9
2016-Jun-21 01:32N 37°41' W 009°11'10 9.7
2016-Jun-21 00:33N 37°31' W 009°13'10 9.5
2016-Jun-20 23:32N 37°22' W 009°16'9 9.6
2016-Jun-20 22:33N 37°12' W 009°18'9 9.4
2016-Jun-20 21:33N 37°03' W 009°20'9 9.1
2016-Jun-20 20:33N 36°54' W 009°19'9 9.3
2016-Jun-20 19:33N 36°47' W 009°12'9 9.1
2016-Jun-20 18:33N 36°43' W 009°02'9 9.4
2016-Jun-20 17:33N 36°40' W 008°51'9 9.1
2016-Jun-20 16:33N 36°37' W 008°40'10 9.4
2016-Jun-20 15:32N 36°34' W 008°29'9 9.6
2016-Jun-20 14:34N 36°31' W 008°17'10 9.7
2016-Jun-20 13:33N 36°28' W 008°06'10 9.6
2016-Jun-20 12:33N 36°25' W 007°55'9 9.4
2016-Jun-20 11:33N 36°22' W 007°44'10 9.6
2016-Jun-20 10:33N 36°19' W 007°32'12 9.5
2016-Jun-20 09:20N 36°15' W 007°18'18 9.8
2016-Jun-20 07:29N 36°10' W 006°57'67 9.6
2016-Jun-20 00:33N 35°58' W 005°36'9 8.9
2016-Jun-19 23:33N 36°00' W 005°25'8 7.6
2016-Jun-19 22:33N 36°01' W 005°16'135 8.9
2016-Jun-19 07:30N 36°23' W 002°31'87 9.2
2016-Jun-18 22:06N 37°14' W 001°03'15 9.8
2016-Jun-18 20:33N 37°24' W 000°49'12 9.5
2016-Jun-18 19:19N 37°32' W 000°38'7 8.9
2016-Jun-18 18:33N 37°36' W 000°32'9 9.2
2016-Jun-18 17:33N 37°44' W 000°25'9 9.0
2016-Jun-18 16:33N 37°52' W 000°20'9 9.2
2016-Jun-18 15:32N 37°60' W 000°13'129 9.8
2016-Jun-18 02:24N 39°57' E 000°56'910.1
2016-Jun-18 01:33N 40°06' E 000°58'1010.1
2016-Jun-18 00:33N 40°16' E 001°00'2210.1
2016-Jun-17 22:22N 40°37' E 001°06'810.1
2016-Jun-17 21:33N 40°45' E 001°08'14 5.6
2016-Jun-17 19:08N 40°59' E 001°11'0 0.3
2016-Jun-17 18:32N 40°58' E 001°11'8 7.6
2016-Jun-17 17:33N 41°06' E 001°14'0 0.0
2016-Jun-16 22:28N 41°06' E 001°14'22 1.2
2016-Jun-16 04:32N 40°52' E 001°36'9 9.0
2016-Jun-16 03:33N 40°47' E 001°46'8 8.4
2016-Jun-16 02:33N 40°42' E 001°55'8 8.3
2016-Jun-16 01:33N 40°38' E 002°04'8 8.5
2016-Jun-16 00:33N 40°33' E 002°14'8 8.3
2016-Jun-15 23:33N 40°29' E 002°23'9 8.7
2016-Jun-15 22:33N 40°24' E 002°32'9 8.6
2016-Jun-15 21:33N 40°19' E 002°42'9 9.2
2016-Jun-15 20:33N 40°14' E 002°52'9 9.2
2016-Jun-15 19:33N 40°10' E 003°02'10 8.9
2016-Jun-15 18:26N 40°04' E 003°13'11 8.8
2016-Jun-15 17:11N 39°58' E 003°25'6 9.6
2016-Jun-15 16:33N 39°55' E 003°31'10 9.6
2016-Jun-15 15:33N 39°49' E 003°42'1110.9
2016-Jun-15 14:32N 39°43' E 003°54'  

Dump ship's entire track history